Terminal Aerodrome Forecast
Issued by NWS

Home | Current Version | Previous Version | Text Only | Print | Product List | Glossary On
Versions: 1 2 3 4 5 6 7 8 9 10 11 12 13 14 15 16 17 18 19 20 21 22 23 24 25 26 27 28 29 30 31 32 33
000
FTUS43 KGRR 201500 AAB
TAFMKG
TAF AMD
KMKG 201505Z 2015/2112 25008KT P6SM SCT010 SCT150
      TEMPO 2015/2017 2SM BR BKN008
     FM201700 28006KT P6SM VCSH BKN050=

USA.gov is the U.S. government's official web portal to all federal, state and local government web resources and services.